Airport View

Enter AWOS ICAO identifier for current METAR.

ex. KFNL

KELP 251351Z 17006KT 10SM CLR 21/07 A3006 RMK AO2 SLP107 T02060067

25 Sep 2020 14:18

Phone: 915-774-9497

Other Area AWOS: KBIF - MMCS - KDNA - K5T6

TAF KELP 251120Z 2512/2612 VRB04KT P6SM SKC FM252000 26007KT P6SM SKC FM260600 VRB05KT P6SM SKC